sensor_id;sensor_type;location;lat;lon;timestamp;pressure;altitude;pressure_sealevel;temperature;humidity
5356;BME280;70449;52.486;13.386;2023-07-28T00:02:19;99638.69;;;20.99;100.00
5356;BME280;70449;52.486;13.386;2023-07-28T00:04:48;99635.53;;;21.04;100.00
5356;BME280;70449;52.486;13.386;2023-07-28T00:07:15;99637.66;;;20.55;100.00
5356;BME280;70449;52.486;13.386;2023-07-28T00:09:44;99637.16;;;20.43;100.00
5356;BME280;70449;52.486;13.386;2023-07-28T00:12:11;99628.72;;;20.35;100.00
5356;BME280;70449;52.486;13.386;2023-07-28T00:14:38;99628.69;;;20.28;100.00
5356;BME280;70449;52.486;13.386;2023-07-28T00:17:05;99629.50;;;20.32;100.00
5356;BME280;70449;52.486;13.386;2023-07-28T00:19:33;99629.56;;;20.36;100.00
5356;BME280;70449;52.486;13.386;2023-07-28T00:22:00;99618.88;;;20.49;100.00
5356;BME280;70449;52.486;13.386;2023-07-28T00:24:27;99624.22;;;20.68;100.00
5356;BME280;70449;52.486;13.386;2023-07-28T00:26:55;99616.03;;;20.38;100.00
5356;BME280;70449;52.486;13.386;2023-07-28T00:29:23;99612.91;;;20.47;100.00
5356;BME280;70449;52.486;13.386;2023-07-28T00:31:50;99610.47;;;20.42;100.00
5356;BME280;70449;52.486;13.386;2023-07-28T00:34:18;99606.50;;;20.39;100.00
5356;BME280;70449;52.486;13.386;2023-07-28T00:36:45;99603.22;;;20.26;100.00
5356;BME280;70449;52.486;13.386;2023-07-28T00:39:13;99617.00;;;20.60;100.00
5356;BME280;70449;52.486;13.386;2023-07-28T00:41:40;99608.06;;;20.36;100.00
5356;BME280;70449;52.486;13.386;2023-07-28T00:44:08;99606.91;;;19.89;100.00
5356;BME280;70449;52.486;13.386;2023-07-28T00:46:36;99601.75;;;19.91;100.00
5356;BME280;70449;52.486;13.386;2023-07-28T00:49:03;99606.28;;;20.07;100.00
5356;BME280;70449;52.486;13.386;2023-07-28T00:51:31;99603.19;;;20.19;100.00
5356;BME280;70449;52.486;13.386;2023-07-28T00:53:58;99606.97;;;19.97;100.00
5356;BME280;70449;52.486;13.386;2023-07-28T00:56:27;99606.88;;;19.86;100.00
5356;BME280;70449;52.486;13.386;2023-07-28T00:58:56;99610.16;;;19.99;100.00
5356;BME280;70449;52.486;13.386;2023-07-28T01:01:25;99602.19;;;19.97;100.00
5356;BME280;70449;52.486;13.386;2023-07-28T01:03:53;99601.63;;;20.22;100.00
5356;BME280;70449;52.486;13.386;2023-07-28T01:06:30;99597.03;;;19.96;100.00
5356;BME280;70449;52.486;13.386;2023-07-28T01:09:04;99601.66;;;20.32;100.00
5356;BME280;70449;52.486;13.386;2023-07-28T01:11:32;99591.72;;;20.31;100.00
5356;BME280;70449;52.486;13.386;2023-07-28T01:14:00;99592.72;;;20.05;100.00
5356;BME280;70449;52.486;13.386;2023-07-28T01:16:28;99603.31;;;20.37;100.00
5356;BME280;70449;52.486;13.386;2023-07-28T01:18:56;99598.44;;;20.23;100.00
5356;BME280;70449;52.486;13.386;2023-07-28T01:21:30;99587.50;;;19.97;100.00
5356;BME280;70449;52.486;13.386;2023-07-28T01:24:14;99583.81;;;19.85;100.00
5356;BME280;70449;52.486;13.386;2023-07-28T01:26:44;99593.53;;;20.06;100.00
5356;BME280;70449;52.486;13.386;2023-07-28T01:29:12;99586.22;;;19.83;100.00
5356;BME280;70449;52.486;13.386;2023-07-28T01:31:41;99587.38;;;20.30;100.00
5356;BME280;70449;52.486;13.386;2023-07-28T01:34:09;99583.97;;;20.03;100.00
5356;BME280;70449;52.486;13.386;2023-07-28T01:36:36;99584.97;;;20.32;100.00
5356;BME280;70449;52.486;13.386;2023-07-28T01:39:03;99585.16;;;20.02;100.00
5356;BME280;70449;52.486;13.386;2023-07-28T01:41:31;99583.25;;;20.10;100.00
5356;BME280;70449;52.486;13.386;2023-07-28T01:43:59;99592.72;;;20.02;100.00
5356;BME280;70449;52.486;13.386;2023-07-28T01:46:26;99590.84;;;20.20;100.00
5356;BME280;70449;52.486;13.386;2023-07-28T01:48:53;99585.50;;;20.49;100.00
5356;BME280;70449;52.486;13.386;2023-07-28T01:51:20;99595.38;;;20.39;100.00
5356;BME280;70449;52.486;13.386;2023-07-28T01:53:48;99585.72;;;20.22;100.00
5356;BME280;70449;52.486;13.386;2023-07-28T01:56:15;99594.19;;;20.44;100.00
5356;BME280;70449;52.486;13.386;2023-07-28T01:58:42;99592.31;;;20.55;100.00
5356;BME280;70449;52.486;13.386;2023-07-28T02:01:12;99583.19;;;20.06;100.00
5356;BME280;70449;52.486;13.386;2023-07-28T02:03:40;99587.44;;;19.89;100.00
5356;BME280;70449;52.486;13.386;2023-07-28T02:06:07;99583.94;;;20.00;100.00
5356;BME280;70449;52.486;13.386;2023-07-28T02:08:34;99580.47;;;20.13;100.00
5356;BME280;70449;52.486;13.386;2023-07-28T02:11:01;99579.91;;;19.93;100.00
5356;BME280;70449;52.486;13.386;2023-07-28T02:13:28;99589.50;;;20.00;100.00
5356;BME280;70449;52.486;13.386;2023-07-28T02:15:55;99586.94;;;20.25;100.00
5356;BME280;70449;52.486;13.386;2023-07-28T02:18:24;99583.34;;;20.24;100.00
5356;BME280;70449;52.486;13.386;2023-07-28T02:20:51;99580.91;;;20.19;100.00
5356;BME280;70449;52.486;13.386;2023-07-28T02:23:19;99592.50;;;20.28;100.00
5356;BME280;70449;52.486;13.386;2023-07-28T02:25:46;99595.91;;;20.04;100.00
5356;BME280;70449;52.486;13.386;2023-07-28T02:28:14;99589.63;;;20.14;100.00
5356;BME280;70449;52.486;13.386;2023-07-28T02:30:41;99592.88;;;20.27;100.00
5356;BME280;70449;52.486;13.386;2023-07-28T02:33:09;99588.13;;;20.27;100.00
5356;BME280;70449;52.486;13.386;2023-07-28T02:35:37;99575.06;;;20.35;100.00
5356;BME280;70449;52.486;13.386;2023-07-28T02:38:05;99576.84;;;20.06;100.00
5356;BME280;70449;52.486;13.386;2023-07-28T02:40:32;99577.78;;;20.24;100.00
5356;BME280;70449;52.486;13.386;2023-07-28T02:43:00;99561.16;;;20.38;100.00
5356;BME280;70449;52.486;13.386;2023-07-28T02:45:27;99574.13;;;20.13;100.00
5356;BME280;70449;52.486;13.386;2023-07-28T02:47:55;99572.34;;;20.46;100.00
5356;BME280;70449;52.486;13.386;2023-07-28T02:50:22;99571.13;;;20.39;100.00
5356;BME280;70449;52.486;13.386;2023-07-28T02:52:52;99571.50;;;20.38;100.00
5356;BME280;70449;52.486;13.386;2023-07-28T02:55:19;99569.03;;;20.22;100.00
5356;BME280;70449;52.486;13.386;2023-07-28T02:57:47;99567.03;;;20.26;100.00
5356;BME280;70449;52.486;13.386;2023-07-28T03:00:14;99563.56;;;20.40;100.00
5356;BME280;70449;52.486;13.386;2023-07-28T03:02:41;99565.22;;;20.48;100.00
5356;BME280;70449;52.486;13.386;2023-07-28T03:05:08;99571.72;;;20.15;100.00
5356;BME280;70449;52.486;13.386;2023-07-28T03:07:35;99568.38;;;20.47;100.00
5356;BME280;70449;52.486;13.386;2023-07-28T03:10:05;99579.38;;;20.25;100.00
5356;BME280;70449;52.486;13.386;2023-07-28T03:12:32;99573.44;;;20.30;100.00
5356;BME280;70449;52.486;13.386;2023-07-28T03:14:59;99581.72;;;20.20;100.00
5356;BME280;70449;52.486;13.386;2023-07-28T03:17:27;99584.59;;;20.30;100.00
5356;BME280;70449;52.486;13.386;2023-07-28T03:19:54;99583.28;;;20.17;100.00
5356;BME280;70449;52.486;13.386;2023-07-28T03:22:21;99584.13;;;20.21;100.00
5356;BME280;70449;52.486;13.386;2023-07-28T03:24:48;99595.28;;;20.28;100.00
5356;BME280;70449;52.486;13.386;2023-07-28T03:27:17;99594.56;;;20.38;100.00
5356;BME280;70449;52.486;13.386;2023-07-28T03:29:45;99584.72;;;19.97;100.00
5356;BME280;70449;52.486;13.386;2023-07-28T03:32:12;99593.94;;;20.08;100.00
5356;BME280;70449;52.486;13.386;2023-07-28T03:34:42;99593.75;;;20.34;100.00
5356;BME280;70449;52.486;13.386;2023-07-28T03:37:12;99590.59;;;20.36;100.00
5356;BME280;70449;52.486;13.386;2023-07-28T03:39:39;99596.84;;;20.22;100.00
5356;BME280;70449;52.486;13.386;2023-07-28T03:42:07;99596.53;;;20.34;100.00
5356;BME280;70449;52.486;13.386;2023-07-28T03:44:36;99600.66;;;20.03;100.00
5356;BME280;70449;52.486;13.386;2023-07-28T03:47:06;99598.31;;;20.09;100.00
5356;BME280;70449;52.486;13.386;2023-07-28T03:49:33;99603.38;;;19.96;100.00
5356;BME280;70449;52.486;13.386;2023-07-28T03:52:00;99609.69;;;19.89;100.00
5356;BME280;70449;52.486;13.386;2023-07-28T03:54:27;99607.22;;;20.29;100.00
5356;BME280;70449;52.486;13.386;2023-07-28T03:56:54;99604.72;;;20.13;100.00
5356;BME280;70449;52.486;13.386;2023-07-28T03:59:22;99608.63;;;20.05;100.00
5356;BME280;70449;52.486;13.386;2023-07-28T04:01:50;99606.22;;;20.03;100.00
5356;BME280;70449;52.486;13.386;2023-07-28T04:04:19;99614.03;;;19.83;100.00
5356;BME280;70449;52.486;13.386;2023-07-28T04:06:49;99603.00;;;19.98;100.00
5356;BME280;70449;52.486;13.386;2023-07-28T04:09:16;99605.53;;;20.13;100.00
5356;BME280;70449;52.486;13.386;2023-07-28T04:11:44;99614.22;;;20.08;100.00
5356;BME280;70449;52.486;13.386;2023-07-28T04:14:11;99626.88;;;19.99;100.00
5356;BME280;70449;52.486;13.386;2023-07-28T04:16:38;99616.63;;;20.10;100.00
5356;BME280;70449;52.486;13.386;2023-07-28T04:19:07;99627.28;;;20.01;100.00
5356;BME280;70449;52.486;13.386;2023-07-28T04:21:34;99623.88;;;20.22;100.00
5356;BME280;70449;52.486;13.386;2023-07-28T04:24:06;99612.81;;;20.32;100.00
5356;BME280;70449;52.486;13.386;2023-07-28T04:26:33;99624.63;;;19.74;100.00
5356;BME280;70449;52.486;13.386;2023-07-28T04:29:00;99624.00;;;20.39;100.00
5356;BME280;70449;52.486;13.386;2023-07-28T04:31:28;99621.38;;;20.09;100.00
5356;BME280;70449;52.486;13.386;2023-07-28T04:33:55;99625.47;;;20.26;100.00
5356;BME280;70449;52.486;13.386;2023-07-28T04:36:24;99614.84;;;20.39;100.00
5356;BME280;70449;52.486;13.386;2023-07-28T04:38:51;99613.75;;;20.51;100.00
5356;BME280;70449;52.486;13.386;2023-07-28T04:41:18;99622.25;;;20.72;100.00
5356;BME280;70449;52.486;13.386;2023-07-28T04:43:45;99612.59;;;20.55;100.00
5356;BME280;70449;52.486;13.386;2023-07-28T04:46:12;99613.25;;;20.38;100.00
5356;BME280;70449;52.486;13.386;2023-07-28T04:48:40;99616.81;;;20.38;100.00
5356;BME280;70449;52.486;13.386;2023-07-28T04:51:07;99612.47;;;21.03;100.00
5356;BME280;70449;52.486;13.386;2023-07-28T04:53:35;99617.88;;;20.75;100.00
5356;BME280;70449;52.486;13.386;2023-07-28T04:56:03;99613.81;;;20.58;100.00
5356;BME280;70449;52.486;13.386;2023-07-28T04:58:31;99619.25;;;20.47;100.00
5356;BME280;70449;52.486;13.386;2023-07-28T05:00:58;99621.38;;;20.61;100.00
5356;BME280;70449;52.486;13.386;2023-07-28T05:03:25;99613.97;;;20.24;100.00
5356;BME280;70449;52.486;13.386;2023-07-28T05:05:52;99629.72;;;20.61;100.00
5356;BME280;70449;52.486;13.386;2023-07-28T05:08:19;99625.16;;;20.38;100.00
5356;BME280;70449;52.486;13.386;2023-07-28T05:10:48;99617.69;;;20.46;100.00
5356;BME280;70449;52.486;13.386;2023-07-28T05:13:15;99633.47;;;20.31;100.00
5356;BME280;70449;52.486;13.386;2023-07-28T05:15:43;99635.97;;;20.47;100.00
5356;BME280;70449;52.486;13.386;2023-07-28T05:18:10;99625.13;;;20.31;100.00
5356;BME280;70449;52.486;13.386;2023-07-28T05:20:38;99626.84;;;20.50;100.00
5356;BME280;70449;52.486;13.386;2023-07-28T05:23:05;99637.13;;;20.39;100.00
5356;BME280;70449;52.486;13.386;2023-07-28T05:25:32;99645.50;;;20.43;100.00
5356;BME280;70449;52.486;13.386;2023-07-28T05:28:01;99634.41;;;20.50;100.00
5356;BME280;70449;52.486;13.386;2023-07-28T05:30:28;99640.50;;;20.63;100.00
5356;BME280;70449;52.486;13.386;2023-07-28T05:32:56;99643.31;;;20.70;100.00
5356;BME280;70449;52.486;13.386;2023-07-28T05:35:23;99637.66;;;20.59;100.00
5356;BME280;70449;52.486;13.386;2023-07-28T05:37:50;99632.66;;;20.27;100.00
5356;BME280;70449;52.486;13.386;2023-07-28T05:40:17;99647.41;;;20.87;100.00
5356;BME280;70449;52.486;13.386;2023-07-28T05:42:45;99645.84;;;21.00;100.00
5356;BME280;70449;52.486;13.386;2023-07-28T05:45:14;99637.88;;;20.95;100.00
5356;BME280;70449;52.486;13.386;2023-07-28T05:47:41;99639.56;;;21.14;100.00
5356;BME280;70449;52.486;13.386;2023-07-28T05:50:09;99645.75;;;20.82;100.00
5356;BME280;70449;52.486;13.386;2023-07-28T05:52:37;99642.19;;;20.81;100.00
5356;BME280;70449;52.486;13.386;2023-07-28T05:55:05;99642.50;;;20.69;100.00
5356;BME280;70449;52.486;13.386;2023-07-28T05:57:33;99646.06;;;20.66;100.00
5356;BME280;70449;52.486;13.386;2023-07-28T06:00:00;99649.72;;;20.77;100.00
5356;BME280;70449;52.486;13.386;2023-07-28T06:02:29;99648.63;;;21.00;100.00
5356;BME280;70449;52.486;13.386;2023-07-28T06:04:57;99652.91;;;20.76;100.00
5356;BME280;70449;52.486;13.386;2023-07-28T06:07:24;99658.13;;;20.84;100.00
5356;BME280;70449;52.486;13.386;2023-07-28T06:09:52;99663.22;;;20.68;100.00
5356;BME280;70449;52.486;13.386;2023-07-28T06:12:20;99674.28;;;20.61;100.00
5356;BME280;70449;52.486;13.386;2023-07-28T06:14:47;99672.38;;;20.72;100.00
5356;BME280;70449;52.486;13.386;2023-07-28T06:17:16;99667.81;;;20.50;100.00
5356;BME280;70449;52.486;13.386;2023-07-28T06:19:45;99688.41;;;20.90;100.00
5356;BME280;70449;52.486;13.386;2023-07-28T06:22:15;99706.78;;;20.50;100.00
5356;BME280;70449;52.486;13.386;2023-07-28T06:24:42;99689.50;;;20.74;100.00
5356;BME280;70449;52.486;13.386;2023-07-28T06:27:10;99686.13;;;20.51;100.00
5356;BME280;70449;52.486;13.386;2023-07-28T06:29:39;99697.97;;;20.96;100.00
5356;BME280;70449;52.486;13.386;2023-07-28T06:32:07;99700.78;;;20.99;100.00
5356;BME280;70449;52.486;13.386;2023-07-28T06:34:35;99708.44;;;20.54;100.00
5356;BME280;70449;52.486;13.386;2023-07-28T06:37:05;99703.47;;;20.81;100.00
5356;BME280;70449;52.486;13.386;2023-07-28T06:39:32;99709.28;;;20.62;100.00
5356;BME280;70449;52.486;13.386;2023-07-28T06:41:59;99710.31;;;20.95;100.00
5356;BME280;70449;52.486;13.386;2023-07-28T06:44:26;99710.31;;;20.95;100.00
5356;BME280;70449;52.486;13.386;2023-07-28T06:46:54;99707.13;;;20.93;100.00
5356;BME280;70449;52.486;13.386;2023-07-28T06:49:21;99714.66;;;20.89;100.00
5356;BME280;70449;52.486;13.386;2023-07-28T06:51:49;99715.13;;;20.98;100.00
5356;BME280;70449;52.486;13.386;2023-07-28T06:54:19;99722.69;;;21.01;100.00
5356;BME280;70449;52.486;13.386;2023-07-28T06:56:47;99704.66;;;20.80;100.00
5356;BME280;70449;52.486;13.386;2023-07-28T06:59:14;99726.88;;;20.73;100.00
5356;BME280;70449;52.486;13.386;2023-07-28T07:01:41;99718.91;;;20.68;100.00
5356;BME280;70449;52.486;13.386;2023-07-28T07:04:09;99727.50;;;21.04;100.00
5356;BME280;70449;52.486;13.386;2023-07-28T07:06:37;99736.31;;;21.20;100.00
5356;BME280;70449;52.486;13.386;2023-07-28T07:09:04;99710.34;;;21.02;100.00
5356;BME280;70449;52.486;13.386;2023-07-28T07:11:33;99725.81;;;21.62;100.00
5356;BME280;70449;52.486;13.386;2023-07-28T07:14:01;99733.06;;;21.08;100.00
5356;BME280;70449;52.486;13.386;2023-07-28T07:16:29;99721.03;;;21.62;100.00
5356;BME280;70449;52.486;13.386;2023-07-28T07:18:56;99716.19;;;21.45;100.00
5356;BME280;70449;52.486;13.386;2023-07-28T07:21:24;99737.75;;;21.62;100.00
5356;BME280;70449;52.486;13.386;2023-07-28T07:23:52;99734.66;;;21.96;100.00
5356;BME280;70449;52.486;13.386;2023-07-28T07:26:19;99728.03;;;21.35;100.00
5356;BME280;70449;52.486;13.386;2023-07-28T07:28:48;99734.47;;;21.39;100.00
5356;BME280;70449;52.486;13.386;2023-07-28T07:31:16;99732.63;;;21.79;100.00
5356;BME280;70449;52.486;13.386;2023-07-28T07:33:43;99741.38;;;21.73;100.00
5356;BME280;70449;52.486;13.386;2023-07-28T07:36:12;99734.69;;;22.03;100.00
5356;BME280;70449;52.486;13.386;2023-07-28T07:38:40;99723.88;;;21.87;100.00
5356;BME280;70449;52.486;13.386;2023-07-28T07:41:08;99735.50;;;22.14;100.00
5356;BME280;70449;52.486;13.386;2023-07-28T07:43:37;99733.56;;;22.29;100.00
5356;BME280;70449;52.486;13.386;2023-07-28T07:46:05;99742.66;;;22.01;100.00
5356;BME280;70449;52.486;13.386;2023-07-28T07:48:33;99750.69;;;22.24;100.00
5356;BME280;70449;52.486;13.386;2023-07-28T07:51:00;99734.75;;;22.17;100.00
5356;BME280;70449;52.486;13.386;2023-07-28T07:53:28;99733.94;;;22.28;100.00
5356;BME280;70449;52.486;13.386;2023-07-28T07:55:55;99750.69;;;22.21;100.00
5356;BME280;70449;52.486;13.386;2023-07-28T07:58:22;99742.34;;;22.56;100.00
5356;BME280;70449;52.486;13.386;2023-07-28T08:00:50;99742.69;;;22.15;100.00
5356;BME280;70449;52.486;13.386;2023-07-28T08:03:18;99745.13;;;22.24;100.00
5356;BME280;70449;52.486;13.386;2023-07-28T08:05:46;99749.06;;;22.12;100.00
5356;BME280;70449;52.486;13.386;2023-07-28T08:08:14;99747.50;;;22.26;100.00
5356;BME280;70449;52.486;13.386;2023-07-28T08:10:43;99745.13;;;22.56;100.00
5356;BME280;70449;52.486;13.386;2023-07-28T08:13:10;99753.09;;;22.69;100.00
5356;BME280;70449;52.486;13.386;2023-07-28T08:15:38;99737.56;;;23.00;100.00
5356;BME280;70449;52.486;13.386;2023-07-28T08:18:05;99765.88;;;22.84;100.00
5356;BME280;70449;52.486;13.386;2023-07-28T08:20:33;99749.91;;;22.67;100.00
5356;BME280;70449;52.486;13.386;2023-07-28T08:23:02;99757.88;;;23.25;100.00
5356;BME280;70449;52.486;13.386;2023-07-28T08:25:29;99750.72;;;22.85;100.00
5356;BME280;70449;52.486;13.386;2023-07-28T08:27:56;99762.69;;;22.75;100.00
5356;BME280;70449;52.486;13.386;2023-07-28T08:30:24;99757.09;;;22.78;100.00
5356;BME280;70449;52.486;13.386;2023-07-28T08:32:51;99769.88;;;22.51;100.00
5356;BME280;70449;52.486;13.386;2023-07-28T08:35:18;99778.66;;;22.67;100.00
5356;BME280;70449;52.486;13.386;2023-07-28T08:37:48;99783.03;;;22.50;100.00
5356;BME280;70449;52.486;13.386;2023-07-28T08:40:16;99778.63;;;22.63;100.00
5356;BME280;70449;52.486;13.386;2023-07-28T08:42:45;99771.44;;;22.84;100.00
5356;BME280;70449;52.486;13.386;2023-07-28T08:45:13;99776.25;;;22.62;100.00
5356;BME280;70449;52.486;13.386;2023-07-28T08:47:41;99774.63;;;22.93;100.00
5356;BME280;70449;52.486;13.386;2023-07-28T08:50:10;99772.19;;;23.31;100.00
5356;BME280;70449;52.486;13.386;2023-07-28T08:52:38;99770.22;;;23.28;100.00
5356;BME280;70449;52.486;13.386;2023-07-28T08:55:08;99760.88;;;23.81;100.00
5356;BME280;70449;52.486;13.386;2023-07-28T08:57:35;99767.72;;;23.62;100.00
5356;BME280;70449;52.486;13.386;2023-07-28T09:00:08;99769.81;;;23.40;100.00
5356;BME280;70449;52.486;13.386;2023-07-28T09:02:37;99781.75;;;23.44;100.00
5356;BME280;70449;52.486;13.386;2023-07-28T09:05:04;99790.22;;;22.91;100.00
5356;BME280;70449;52.486;13.386;2023-07-28T09:07:34;99790.22;;;22.66;100.00
5356;BME280;70449;52.486;13.386;2023-07-28T09:10:03;99791.44;;;23.00;100.00
5356;BME280;70449;52.486;13.386;2023-07-28T09:12:33;99793.84;;;22.95;100.00
5356;BME280;70449;52.486;13.386;2023-07-28T09:15:00;99789.41;;;23.26;100.00
5356;BME280;70449;52.486;13.386;2023-07-28T09:17:32;99795.03;;;23.04;100.00
5356;BME280;70449;52.486;13.386;2023-07-28T09:20:13;99805.78;;;22.88;100.00
5356;BME280;70449;52.486;13.386;2023-07-28T09:22:42;99804.22;;;23.08;100.00
5356;BME280;70449;52.486;13.386;2023-07-28T09:25:16;99805.38;;;22.47;100.00
5356;BME280;70449;52.486;13.386;2023-07-28T09:27:52;99813.78;;;22.86;100.00
5356;BME280;70449;52.486;13.386;2023-07-28T09:30:20;99797.00;;;22.61;100.00
5356;BME280;70449;52.486;13.386;2023-07-28T09:32:49;99803.34;;;23.44;100.00
5356;BME280;70449;52.486;13.386;2023-07-28T09:35:17;99799.31;;;23.70;100.00
5356;BME280;70449;52.486;13.386;2023-07-28T09:37:47;99818.97;;;23.27;100.00
5356;BME280;70449;52.486;13.386;2023-07-28T09:40:20;99812.06;;;23.78;100.00
5356;BME280;70449;52.486;13.386;2023-07-28T09:42:50;99818.31;;;24.04;100.00
5356;BME280;70449;52.486;13.386;2023-07-28T09:45:21;99824.09;;;23.53;100.00
5356;BME280;70449;52.486;13.386;2023-07-28T09:47:51;99794.50;;;23.60;100.00
5356;BME280;70449;52.486;13.386;2023-07-28T09:50:24;99809.28;;;23.57;100.00
5356;BME280;70449;52.486;13.386;2023-07-28T09:52:58;99822.03;;;23.79;100.00
5356;BME280;70449;52.486;13.386;2023-07-28T09:55:27;99805.50;;;24.10;100.00
5356;BME280;70449;52.486;13.386;2023-07-28T09:57:58;99817.59;;;23.89;100.00
5356;BME280;70449;52.486;13.386;2023-07-28T10:00:28;99819.34;;;23.33;100.00
5356;BME280;70449;52.486;13.386;2023-07-28T10:02:56;99820.00;;;23.90;100.00
5356;BME280;70449;52.486;13.386;2023-07-28T10:05:24;99822.97;;;23.12;100.00
5356;BME280;70449;52.486;13.386;2023-07-28T10:07:54;99825.72;;;23.33;100.00
5356;BME280;70449;52.486;13.386;2023-07-28T10:10:21;99806.88;;;23.66;100.00
5356;BME280;70449;52.486;13.386;2023-07-28T10:12:50;99809.69;;;23.73;100.00
5356;BME280;70449;52.486;13.386;2023-07-28T10:15:20;99814.38;;;23.94;100.00
5356;BME280;70449;52.486;13.386;2023-07-28T10:17:54;99822.28;;;24.17;100.00
5356;BME280;70449;52.486;13.386;2023-07-28T10:20:28;99810.38;;;23.98;100.00
5356;BME280;70449;52.486;13.386;2023-07-28T10:23:10;99834.69;;;24.12;100.00
5356;BME280;70449;52.486;13.386;2023-07-28T10:25:39;99828.47;;;23.54;100.00
5356;BME280;70449;52.486;13.386;2023-07-28T10:28:07;99832.47;;;23.61;100.00
5356;BME280;70449;52.486;13.386;2023-07-28T10:30:54;99836.81;;;23.83;100.00
5356;BME280;70449;52.486;13.386;2023-07-28T10:33:43;99848.94;;;23.05;100.00
5356;BME280;70449;52.486;13.386;2023-07-28T10:36:15;99871.56;;;22.46;100.00
5356;BME280;70449;52.486;13.386;2023-07-28T10:38:43;99874.34;;;22.32;100.00
5356;BME280;70449;52.486;13.386;2023-07-28T10:41:15;99867.84;;;22.06;100.00
5356;BME280;70449;52.486;13.386;2023-07-28T10:43:44;99856.03;;;22.38;100.00
5356;BME280;70449;52.486;13.386;2023-07-28T10:46:16;99840.88;;;22.60;100.00
5356;BME280;70449;52.486;13.386;2023-07-28T10:48:45;99847.28;;;22.93;100.00
5356;BME280;70449;52.486;13.386;2023-07-28T10:51:21;99841.72;;;23.43;100.00
5356;BME280;70449;52.486;13.386;2023-07-28T10:53:50;99868.88;;;23.32;100.00
5356;BME280;70449;52.486;13.386;2023-07-28T10:56:18;99857.28;;;23.30;100.00
5356;BME280;70449;52.486;13.386;2023-07-28T10:58:46;99846.44;;;23.64;100.00
5356;BME280;70449;52.486;13.386;2023-07-28T11:01:16;99845.50;;;24.07;100.00
5356;BME280;70449;52.486;13.386;2023-07-28T11:03:43;99844.03;;;23.77;100.00
5356;BME280;70449;52.486;13.386;2023-07-28T11:06:12;99847.69;;;23.52;100.00
5356;BME280;70449;52.486;13.386;2023-07-28T11:08:40;99855.66;;;23.58;100.00
5356;BME280;70449;52.486;13.386;2023-07-28T11:11:07;99862.53;;;22.99;100.00
5356;BME280;70449;52.486;13.386;2023-07-28T11:13:34;99873.22;;;22.65;100.00
5356;BME280;70449;52.486;13.386;2023-07-28T11:16:02;99866.38;;;22.37;100.00
5356;BME280;70449;52.486;13.386;2023-07-28T11:18:33;99871.03;;;22.08;100.00
5356;BME280;70449;52.486;13.386;2023-07-28T11:21:00;99881.03;;;22.13;100.00
5356;BME280;70449;52.486;13.386;2023-07-28T11:23:28;99886.22;;;22.14;100.00
5356;BME280;70449;52.486;13.386;2023-07-28T11:25:56;99898.81;;;21.80;100.00
5356;BME280;70449;52.486;13.386;2023-07-28T11:28:23;99888.72;;;21.57;100.00
5356;BME280;70449;52.486;13.386;2023-07-28T11:30:51;99899.22;;;21.26;100.00
5356;BME280;70449;52.486;13.386;2023-07-28T11:33:19;99901.19;;;20.78;100.00
5356;BME280;70449;52.486;13.386;2023-07-28T11:35:48;99902.25;;;21.07;100.00
5356;BME280;70449;52.486;13.386;2023-07-28T11:38:15;99896.84;;;21.28;100.00
5356;BME280;70449;52.486;13.386;2023-07-28T11:40:44;99905.59;;;21.27;100.00
5356;BME280;70449;52.486;13.386;2023-07-28T11:43:11;99907.47;;;21.12;100.00
5356;BME280;70449;52.486;13.386;2023-07-28T11:45:39;99897.63;;;21.88;100.00
5356;BME280;70449;52.486;13.386;2023-07-28T11:48:07;99900.59;;;21.47;100.00
5356;BME280;70449;52.486;13.386;2023-07-28T11:50:37;99897.94;;;21.65;100.00
5356;BME280;70449;52.486;13.386;2023-07-28T11:53:07;99906.72;;;21.70;100.00
5356;BME280;70449;52.486;13.386;2023-07-28T11:55:36;99905.34;;;22.09;100.00
5356;BME280;70449;52.486;13.386;2023-07-28T11:58:05;99907.66;;;21.96;100.00
5356;BME280;70449;52.486;13.386;2023-07-28T12:00:34;99917.25;;;22.02;100.00
5356;BME280;70449;52.486;13.386;2023-07-28T12:03:04;99921.34;;;22.23;100.00
5356;BME280;70449;52.486;13.386;2023-07-28T12:05:32;99926.34;;;22.90;100.00
5356;BME280;70449;52.486;13.386;2023-07-28T12:08:01;99927.13;;;22.87;100.00
5356;BME280;70449;52.486;13.386;2023-07-28T12:10:31;99932.22;;;22.38;100.00
5356;BME280;70449;52.486;13.386;2023-07-28T12:13:04;99926.31;;;22.65;100.00
5356;BME280;70449;52.486;13.386;2023-07-28T12:15:32;99931.94;;;22.83;100.00
5356;BME280;70449;52.486;13.386;2023-07-28T12:18:17;99932.72;;;22.87;100.00
5356;BME280;70449;52.486;13.386;2023-07-28T12:20:47;99924.81;;;22.96;100.00
5356;BME280;70449;52.486;13.386;2023-07-28T12:23:17;99921.19;;;23.42;100.00
5356;BME280;70449;52.486;13.386;2023-07-28T12:25:47;99929.59;;;23.28;100.00
5356;BME280;70449;52.486;13.386;2023-07-28T12:28:14;99931.19;;;23.54;100.00
5356;BME280;70449;52.486;13.386;2023-07-28T12:30:42;99930.38;;;23.50;100.00
5356;BME280;70449;52.486;13.386;2023-07-28T12:33:10;99936.00;;;23.28;100.00
5356;BME280;70449;52.486;13.386;2023-07-28T12:35:40;99941.56;;;23.00;100.00
5356;BME280;70449;52.486;13.386;2023-07-28T12:38:07;99949.56;;;23.16;100.00
5356;BME280;70449;52.486;13.386;2023-07-28T12:40:35;99939.97;;;23.09;100.00
5356;BME280;70449;52.486;13.386;2023-07-28T12:43:04;99950.38;;;23.05;100.00
5356;BME280;70449;52.486;13.386;2023-07-28T12:45:31;99974.75;;;23.23;100.00
5356;BME280;70449;52.486;13.386;2023-07-28T12:48:00;99962.34;;;23.02;100.00
5356;BME280;70449;52.486;13.386;2023-07-28T12:50:27;99966.34;;;23.44;100.00
5356;BME280;70449;52.486;13.386;2023-07-28T12:52:55;99968.75;;;23.85;100.00
5356;BME280;70449;52.486;13.386;2023-07-28T12:55:22;99958.69;;;24.06;100.00
5356;BME280;70449;52.486;13.386;2023-07-28T12:57:49;99963.97;;;23.71;100.00